LIRP/PSA METAR and TAF weather

Enter ICAO airport designator
Station Type Date Time Source
LIRP METAR 2019/04/25 16:15 UTC NOAA

LIRP 251615Z VRB02KT CAVOK 19/14 Q1017 NOSIG


Station Type Date Time Source
LIRP Decoded METAR 2019/04/25 16:15 UTC NOAA

Pisa / S. Giusto, Italy (LIRP) 43-41N 010-23E 6M
Apr 25, 2019 - 12:15 PM EDT / 2019.04.25 1615 UTC
Wind: Variable at 2 MPH (2 KT):0
Visibility: greater than 7 mile(s):0
Temperature: 66 F (19 C)
Dew Point: 57 F (14 C)
Relative Humidity: 72%
Pressure (altimeter): 30.03 in. Hg (1017 hPa)
ob: LIRP 251615Z VRB02KT CAVOK 19/14 Q1017 NOSIG
cycle: 16

Station Type Date Time Source
LIRP TAF 2019/04/25 12:21 UTC NOAA

TAF TAF LIRP 251100Z 2512/2612 11010KT 9999 SCT070
BECMG 2514/2516 VRB05KT PROB30
TEMPO 2518/2524 5000 RA
BECMG 2600/2602 2000 BR BKN005
BECMG 2606/2608 4000 BR SCT015
BECMG 2609/2611 5000 RA BR BKN020

Example: see airport list